Time;durP1;ratioP1;P1;durP2;ratioP2;P2;SDS_P1;SDS_P2;PMS_P1;PMS_P2;Temp;Humidity;BMP_temperature;BMP_pressure;BME280_temperature;BME280_humidity;BME280_pressure;Samples;Min_cycle;Max_cycle;Signal;HPM_P1;HPM_P2
2022/04/18 00:02:07;;;;;;;1.35;0.10;;;25.70;33.30;;;;;;5067151;28;20064;-46
2022/04/18 00:04:36;;;;;;;0.43;0.43;;;25.70;33.40;;;;;;5067498;28;20186;-46
2022/04/18 00:07:03;;;;;;;0.63;0.30;;;25.70;33.30;;;;;;5067452;28;20064;-47
2022/04/18 00:09:33;;;;;;;0.68;0.10;;;25.70;33.30;;;;;;5069003;28;20036;-46
2022/04/18 00:12:00;;;;;;;1.85;0.20;;;25.70;33.30;;;;;;5066374;28;20118;-52
2022/04/18 00:14:27;;;;;;;3.13;0.10;;;25.70;33.30;;;;;;5070412;28;20036;-51
2022/04/18 00:16:56;;;;;;;3.20;0.40;;;25.70;33.80;;;;;;5067287;28;20590;-54
2022/04/18 00:19:23;;;;;;;0.10;0.10;;;25.70;34.20;;;;;;5065070;28;20041;-54
2022/04/18 00:21:50;;;;;;;1.58;0.10;;;25.70;34.60;;;;;;5069155;28;20076;-55
2022/04/18 00:24:19;;;;;;;0.10;0.10;;;25.70;34.80;;;;;;5070307;28;20050;-54
2022/04/18 00:26:46;;;;;;;1.40;0.20;;;25.80;35.10;;;;;;5069118;28;20575;-54
2022/04/18 00:29:14;;;;;;;0.30;0.10;;;25.80;35.30;;;;;;5051664;28;20059;-56
2022/04/18 00:31:41;;;;;;;3.70;0.20;;;25.80;35.50;;;;;;5072467;28;20406;-54
2022/04/18 00:34:10;;;;;;;1.65;0.20;;;25.80;36.20;;;;;;5075409;28;20037;-51
2022/04/18 00:36:37;;;;;;;0.22;0.15;;;25.90;35.70;;;;;;5068734;28;20041;-57
2022/04/18 00:39:05;;;;;;;0.22;0.22;;;25.90;35.70;;;;;;5050342;28;20810;-53
2022/04/18 00:41:32;;;;;;;0.85;0.40;;;25.90;35.70;;;;;;5070402;28;20052;-56
2022/04/18 00:43:59;;;;;;;0.65;0.10;;;25.90;35.80;;;;;;5051104;28;20036;-53
2022/04/18 00:46:27;;;;;;;1.67;0.10;;;26.00;35.90;;;;;;5068872;28;20114;-56
2022/04/18 00:48:54;;;;;;;0.40;0.17;;;25.90;35.90;;;;;;5050621;28;20044;-57
2022/04/18 00:51:25;;;;;;;1.45;0.82;;;26.00;36.00;;;;;;5050693;28;20064;-55
2022/04/18 00:53:54;;;;;;;3.15;0.38;;;26.00;36.00;;;;;;5068998;28;20055;-55
2022/04/18 00:56:22;;;;;;;1.17;0.10;;;26.00;36.00;;;;;;5059447;28;20415;-56
2022/04/18 00:58:50;;;;;;;0.10;0.10;;;26.00;36.00;;;;;;5068475;28;20076;-55
2022/04/18 01:01:19;;;;;;;0.13;0.10;;;26.00;36.00;;;;;;5069015;28;20087;-56
2022/04/18 01:03:48;;;;;;;1.88;0.40;;;26.00;36.00;;;;;;5050632;28;20055;-56
2022/04/18 01:06:16;;;;;;;1.50;0.25;;;26.00;36.10;;;;;;5050153;28;20043;-56
2022/04/18 01:08:47;;;;;;;1.38;0.10;;;26.00;36.10;;;;;;5056371;28;20040;-56
2022/04/18 01:11:15;;;;;;;1.58;0.15;;;26.00;36.00;;;;;;5061803;28;20052;-57
2022/04/18 01:14:02;;;;;;;0.20;0.10;;;26.00;35.90;;;;;;5068302;28;20052;-56
2022/04/18 01:16:48;;;;;;;0.30;0.30;;;26.00;35.90;;;;;;5068527;28;20056;-56
2022/04/18 01:19:45;;;;;;;0.50;0.10;;;26.00;35.90;;;;;;5053235;28;20421;-56
2022/04/18 01:22:22;;;;;;;0.88;0.43;;;26.00;35.90;;;;;;5073345;28;20094;-56
2022/04/18 01:30:44;;;;;;;0.88;0.22;;;26.00;35.90;;;;;;5065212;28;20497;-57
2022/04/18 01:33:11;;;;;;;3.67;0.30;;;26.00;35.90;;;;;;5045912;28;20044;-58
2022/04/18 01:35:39;;;;;;;1.17;0.55;;;26.00;35.90;;;;;;5047510;28;20040;-55
2022/04/18 01:38:09;;;;;;;0.20;0.20;;;26.00;36.00;;;;;;5067776;28;20041;-57
2022/04/18 01:40:36;;;;;;;0.73;0.10;;;26.00;36.00;;;;;;5049557;28;20047;-57
2022/04/18 01:43:06;;;;;;;0.20;0.00;;;26.00;36.00;;;;;;5066664;28;20040;-56
2022/04/18 01:45:34;;;;;;;0.40;0.08;;;26.00;35.90;;;;;;5067589;28;20041;-55
2022/04/18 01:48:14;;;;;;;2.25;0.00;;;26.00;35.90;;;;;;5048494;28;20051;-56
2022/04/18 01:50:41;;;;;;;0.20;0.10;;;26.00;35.90;;;;;;5051236;28;20044;-56
2022/04/18 01:53:10;;;;;;;0.35;0.00;;;26.00;35.90;;;;;;5066935;28;20055;-55
2022/04/18 01:55:37;;;;;;;0.20;0.00;;;26.00;35.90;;;;;;5059504;28;20049;-57
2022/04/18 01:58:05;;;;;;;1.02;0.05;;;26.00;35.80;;;;;;5046868;28;20041;-56
2022/04/18 02:00:33;;;;;;;0.30;0.30;;;26.00;35.80;;;;;;5049457;28;20124;-56
2022/04/18 02:03:00;;;;;;;0.68;0.10;;;26.00;35.80;;;;;;5056531;28;20051;-56
2022/04/18 02:05:27;;;;;;;0.63;0.10;;;25.90;35.70;;;;;;5050710;28;20040;-57
2022/04/18 02:07:54;;;;;;;0.77;0.10;;;26.00;36.00;;;;;;5048617;28;20047;-54
2022/04/18 02:10:22;;;;;;;10.85;1.23;;;26.00;36.00;;;;;;5044746;28;20131;-56
2022/04/18 02:12:50;;;;;;;6.45;0.20;;;26.00;36.40;;;;;;5049510;28;20055;-53
2022/04/18 02:15:19;;;;;;;4.68;0.40;;;25.90;36.50;;;;;;5046549;28;20044;-55
2022/04/18 02:18:00;;;;;;;4.20;0.17;;;26.00;36.60;;;;;;5048779;28;20059;-54
2022/04/18 02:20:27;;;;;;;7.50;0.30;;;26.00;36.60;;;;;;5065338;28;20048;-55
2022/04/18 02:22:56;;;;;;;2.53;0.43;;;25.90;36.50;;;;;;5065532;28;20056;-53
2022/04/18 02:25:25;;;;;;;3.13;0.20;;;25.90;36.60;;;;;;5047016;28;20041;-53
2022/04/18 02:27:56;;;;;;;0.70;0.10;;;25.90;36.60;;;;;;5048722;28;20044;-55
2022/04/18 02:30:24;;;;;;;2.03;0.52;;;25.90;36.50;;;;;;5049233;28;20063;-54
2022/04/18 02:32:51;;;;;;;2.63;0.65;;;25.90;36.50;;;;;;5048214;28;20048;-55
2022/04/18 02:35:21;;;;;;;3.63;0.30;;;25.90;36.50;;;;;;5050508;28;20041;-55
2022/04/18 02:37:50;;;;;;;1.98;0.20;;;25.90;36.50;;;;;;5067325;28;20080;-56
2022/04/18 02:40:22;;;;;;;2.72;0.15;;;25.90;36.60;;;;;;5048993;28;20119;-55
2022/04/18 02:42:50;;;;;;;1.80;0.10;;;25.90;36.60;;;;;;5048726;28;20472;-56
2022/04/18 02:45:19;;;;;;;1.88;0.10;;;25.90;36.60;;;;;;5049266;28;20427;-54
2022/04/18 02:48:05;;;;;;;3.22;0.32;;;25.90;36.70;;;;;;5065891;28;20044;-56
2022/04/18 02:50:35;;;;;;;2.83;0.10;;;25.90;36.70;;;;;;5066520;28;20055;-55
2022/04/18 02:53:02;;;;;;;0.45;0.10;;;25.90;36.70;;;;;;5048962;28;20051;-56
2022/04/18 02:55:41;;;;;;;2.92;0.10;;;25.80;36.60;;;;;;5041043;28;20041;-56
2022/04/18 02:58:09;;;;;;;1.13;0.10;;;25.80;36.70;;;;;;5058176;28;20047;-55
2022/04/18 03:00:37;;;;;;;0.65;0.10;;;25.80;36.70;;;;;;5048530;28;20135;-57
2022/04/18 03:03:05;;;;;;;0.93;0.15;;;25.80;36.70;;;;;;5048628;28;20048;-56
2022/04/18 03:05:34;;;;;;;0.45;0.10;;;25.80;36.70;;;;;;5046483;28;20513;-56
2022/04/18 03:08:01;;;;;;;6.47;0.10;;;25.80;37.20;;;;;;5044207;28;20075;-55
2022/04/18 03:13:19;;;;;;;1.40;0.10;;;25.80;36.80;;;;;;5057968;28;20066;-56
2022/04/18 03:15:47;;;;;;;0.63;0.10;;;25.80;36.80;;;;;;5048123;28;20047;-56
2022/04/18 03:18:14;;;;;;;4.35;0.20;;;25.80;36.90;;;;;;5048155;28;20043;-58
2022/04/18 03:20:42;;;;;;;0.13;0.10;;;25.80;36.90;;;;;;5050045;28;20047;-56
2022/04/18 03:23:09;;;;;;;0.52;0.10;;;25.70;36.90;;;;;;5066558;28;20037;-57
2022/04/18 03:26:03;;;;;;;3.42;0.57;;;25.70;36.90;;;;;;5066244;28;20036;-57
2022/04/18 03:28:41;;;;;;;0.32;0.00;;;25.80;37.00;;;;;;5047689;28;20517;-56
2022/04/18 03:31:08;;;;;;;0.63;0.05;;;25.70;36.90;;;;;;5066230;28;20036;-55
2022/04/18 03:33:35;;;;;;;0.10;0.00;;;25.70;36.90;;;;;;5047910;28;20036;-56
2022/04/18 03:41:32;;;;;;;2.60;0.10;;;25.70;37.00;;;;;;5046989;28;20056;-56
2022/04/18 03:44:01;;;;;;;2.72;0.85;;;25.70;37.00;;;;;;5064373;28;20036;-53
2022/04/18 03:46:28;;;;;;;2.20;0.65;;;25.70;37.00;;;;;;5047929;28;20588;-55
2022/04/18 03:48:55;;;;;;;2.20;0.10;;;25.70;37.00;;;;;;5045683;28;20469;-49
2022/04/18 03:51:23;;;;;;;1.27;0.10;;;25.70;37.10;;;;;;5065752;28;20082;-51
2022/04/18 03:53:50;;;;;;;0.10;0.00;;;25.70;37.10;;;;;;5029761;28;20549;-48
2022/04/18 03:56:19;;;;;;;0.38;0.20;;;25.70;37.00;;;;;;5049141;28;20040;-54
2022/04/18 03:59:16;;;;;;;0.10;0.00;;;25.60;36.90;;;;;;5073755;28;20072;-53
2022/04/18 04:01:58;;;;;;;0.57;0.00;;;25.60;36.90;;;;;;5048916;28;20721;-50
2022/04/18 04:04:26;;;;;;;0.63;0.10;;;25.60;36.90;;;;;;5047843;28;20055;-48
2022/04/18 04:06:55;;;;;;;0.15;0.00;;;25.60;36.90;;;;;;5047459;28;20047;-47
2022/04/18 04:09:22;;;;;;;0.75;0.10;;;25.60;36.90;;;;;;5047673;28;20054;-46
2022/04/18 04:11:49;;;;;;;2.88;0.52;;;25.60;36.90;;;;;;5048145;28;20045;-50
2022/04/18 04:14:18;;;;;;;0.10;0.10;;;25.60;36.90;;;;;;5053497;28;20045;-52
2022/04/18 04:16:45;;;;;;;0.20;0.00;;;25.60;36.90;;;;;;5028682;28;20051;-47
2022/04/18 04:19:13;;;;;;;0.10;0.00;;;25.60;36.80;;;;;;5047868;28;20045;-49
2022/04/18 04:21:40;;;;;;;0.17;0.00;;;25.60;36.80;;;;;;5028084;28;20055;-51
2022/04/18 04:24:09;;;;;;;0.17;0.10;;;25.60;36.80;;;;;;5065731;28;20049;-50
2022/04/18 04:26:41;;;;;;;0.13;0.00;;;25.60;36.80;;;;;;5062071;28;20040;-49
2022/04/18 04:29:11;;;;;;;0.15;0.03;;;25.50;36.70;;;;;;5061688;28;20437;-49
2022/04/18 04:32:03;;;;;;;0.05;0.05;;;25.50;37.20;;;;;;5043114;28;20540;-52
2022/04/18 04:34:32;;;;;;;1.35;0.28;;;25.50;36.60;;;;;;5036275;28;20041;-49
2022/04/18 04:37:28;;;;;;;1.00;0.08;;;25.50;36.60;;;;;;5046297;28;20044;-51
2022/04/18 04:40:09;;;;;;;0.30;0.00;;;25.40;37.20;;;;;;5047117;28;20052;-53
2022/04/18 04:42:37;;;;;;;0.38;0.10;;;25.50;36.60;;;;;;5047126;28;20714;-52
2022/04/18 04:45:05;;;;;;;1.20;0.10;;;25.40;36.50;;;;;;5050069;28;20042;-52
2022/04/18 04:47:53;;;;;;;1.85;0.10;;;25.40;36.50;;;;;;5066825;28;20798;-49
2022/04/18 04:50:21;;;;;;;0.45;0.10;;;25.50;36.60;;;;;;5049338;28;20041;-52
2022/04/18 04:52:54;;;;;;;0.00;0.00;;;25.40;36.60;;;;;;5065755;28;20041;-49
2022/04/18 04:55:24;;;;;;;0.10;0.00;;;25.50;36.50;;;;;;5050833;28;20119;-52
2022/04/18 04:57:52;;;;;;;0.32;0.32;;;25.40;36.50;;;;;;5050068;28;20123;-53
2022/04/18 05:00:39;;;;;;;0.10;0.10;;;25.40;36.50;;;;;;5067473;28;20040;-53
2022/04/18 05:03:17;;;;;;;6.20;0.32;;;25.40;36.50;;;;;;5035348;28;20066;-53
2022/04/18 05:05:45;;;;;;;1.55;0.03;;;25.40;36.50;;;;;;5051490;28;20776;-51
2022/04/18 05:08:25;;;;;;;0.10;0.10;;;25.40;36.40;;;;;;5062212;28;20068;-55
2022/04/18 05:10:54;;;;;;;1.33;0.17;;;25.40;36.50;;;;;;5058106;28;20056;-54
2022/04/18 05:13:28;;;;;;;3.65;0.05;;;25.40;36.50;;;;;;5063055;28;20514;-56
2022/04/18 05:15:55;;;;;;;2.42;0.22;;;25.40;36.40;;;;;;5049966;28;20048;-50
2022/04/18 05:18:34;;;;;;;0.65;0.10;;;25.40;36.50;;;;;;5049704;28;20036;-52
2022/04/18 05:21:01;;;;;;;0.55;0.00;;;25.40;36.50;;;;;;5068385;28;20045;-55
2022/04/18 05:23:29;;;;;;;0.45;0.00;;;25.40;36.50;;;;;;5052004;28;20044;-53
2022/04/18 05:25:57;;;;;;;1.40;0.10;;;25.30;36.30;;;;;;5049147;28;20074;-53
2022/04/18 05:28:24;;;;;;;3.58;0.20;;;25.40;36.40;;;;;;5048883;28;20779;-53
2022/04/18 05:30:55;;;;;;;2.75;0.00;;;25.30;36.30;;;;;;5046025;28;20524;-49
2022/04/18 05:33:23;;;;;;;2.88;0.13;;;25.30;36.30;;;;;;5045933;28;20074;-54
2022/04/18 05:36:12;;;;;;;2.65;0.10;;;25.30;36.30;;;;;;5066988;28;20057;-54
2022/04/18 05:38:40;;;;;;;3.60;0.10;;;25.30;36.30;;;;;;5066354;28;20129;-55
2022/04/18 05:41:13;;;;;;;4.90;0.13;;;25.30;36.30;;;;;;5050432;28;20079;-54
2022/04/18 05:43:42;;;;;;;0.57;0.57;;;25.30;36.30;;;;;;5052671;28;20044;-54
2022/04/18 05:46:10;;;;;;;1.75;0.20;;;25.30;36.30;;;;;;5049489;28;20519;-55
2022/04/18 05:48:38;;;;;;;0.10;0.10;;;25.30;36.30;;;;;;5066220;28;20564;-50
2022/04/18 05:51:05;;;;;;;1.48;0.57;;;25.30;36.30;;;;;;5052977;28;20047;-53
2022/04/18 05:53:34;;;;;;;7.32;0.10;;;25.30;36.30;;;;;;5034444;28;20052;-55
2022/04/18 05:56:18;;;;;;;;;;;25.30;36.30;;;;;;5053956;28;20097;-51
2022/04/18 05:58:51;;;;;;;3.72;0.20;;;25.30;36.30;;;;;;5064849;28;20034;-52
2022/04/18 06:01:44;;;;;;;1.35;0.10;;;25.30;36.50;;;;;;5066186;28;20413;-55
2022/04/18 06:04:18;;;;;;;0.35;0.35;;;25.30;36.60;;;;;;5049198;28;20040;-54
2022/04/18 06:06:53;;;;;;;0.70;0.10;;;25.30;36.50;;;;;;5064394;28;20099;-53
2022/04/18 06:09:22;;;;;;;3.30;0.10;;;25.30;36.60;;;;;;5054451;28;20044;-52
2022/04/18 06:11:49;;;;;;;4.45;0.55;;;25.30;36.60;;;;;;5052304;28;20032;-47
2022/04/18 06:14:19;;;;;;;3.25;0.10;;;25.30;36.60;;;;;;5050213;28;20101;-50
2022/04/18 06:16:51;;;;;;;3.13;0.20;;;25.30;36.70;;;;;;5047848;28;20051;-54
2022/04/18 06:19:21;;;;;;;5.88;0.57;;;25.40;36.70;;;;;;5048457;28;20037;-54
2022/04/18 06:21:49;;;;;;;2.72;0.30;;;25.40;36.80;;;;;;5048823;28;20532;-51
2022/04/18 06:24:18;;;;;;;4.97;0.20;;;25.40;36.90;;;;;;5049229;28;20044;-51
2022/04/18 06:26:58;;;;;;;25.38;3.60;;;25.40;36.90;;;;;;5048556;28;20098;-53
2022/04/18 06:29:26;;;;;;;21.92;3.30;;;25.40;38.00;;;;;;5050214;28;20056;-51
2022/04/18 06:31:54;;;;;;;32.15;2.78;;;25.40;39.50;;;;;;5046197;28;20044;-55
2022/04/18 06:34:25;;;;;;;26.73;3.25;;;25.40;41.50;;;;;;5044769;28;20051;-54
2022/04/18 06:36:53;;;;;;;29.17;2.45;;;25.50;42.00;;;;;;5038284;28;20056;-56
2022/04/18 06:39:28;;;;;;;9.65;1.40;;;25.50;41.70;;;;;;5048824;28;20037;-51
2022/04/18 06:42:12;;;;;;;15.98;1.95;;;25.50;41.40;;;;;;5048361;28;20519;-52
2022/04/18 06:44:47;;;;;;;11.85;1.77;;;25.50;41.20;;;;;;5046801;28;20810;-52
2022/04/18 06:47:15;;;;;;;15.60;1.45;;;25.50;41.20;;;;;;5047188;28;20060;-54
2022/04/18 06:50:10;;;;;;;15.18;1.92;;;25.50;41.20;;;;;;5036864;28;20056;-48
2022/04/18 06:53:00;;;;;;;14.23;1.00;;;25.50;41.10;;;;;;5065008;28;20055;-53
2022/04/18 06:58:52;;;;;;;10.75;1.20;;;25.50;40.90;;;;;;5064543;28;20124;-53
2022/04/18 07:01:19;;;;;;;11.90;1.25;;;25.50;40.90;;;;;;5044980;28;20056;-52
2022/04/18 07:03:46;;;;;;;10.73;1.13;;;25.50;40.90;;;;;;5037369;28;20115;-55
2022/04/18 07:06:14;;;;;;;11.13;0.20;;;25.50;40.90;;;;;;5048145;28;20041;-56
2022/04/18 07:08:41;;;;;;;7.43;0.47;;;25.50;40.80;;;;;;5050444;28;20044;-54
2022/04/18 07:11:45;;;;;;;9.10;1.15;;;25.50;40.60;;;;;;5062405;28;20063;-53
2022/04/18 07:14:14;;;;;;;8.90;0.80;;;25.50;40.20;;;;;;5048812;28;20553;-53
2022/04/18 07:16:41;;;;;;;10.80;1.23;;;25.50;40.10;;;;;;5048188;28;20043;-51
2022/04/18 07:19:11;;;;;;;7.72;0.40;;;25.50;39.80;;;;;;5048368;28;20072;-53
2022/04/18 07:21:38;;;;;;;4.32;0.28;;;25.60;39.80;;;;;;5047539;28;20044;-52
2022/04/18 07:24:06;;;;;;;4.30;0.70;;;25.60;39.60;;;;;;5047146;28;20041;-55
2022/04/18 07:26:34;;;;;;;8.15;0.85;;;25.60;39.50;;;;;;5045882;28;20119;-53
2022/04/18 07:29:01;;;;;;;1.95;0.60;;;25.60;39.50;;;;;;5063191;28;20483;-54
2022/04/18 07:31:31;;;;;;;4.53;0.35;;;25.60;39.40;;;;;;5047998;28;20090;-50
2022/04/18 07:33:58;;;;;;;3.95;0.38;;;25.70;39.40;;;;;;5065725;28;20059;-54
2022/04/18 07:36:25;;;;;;;5.18;0.28;;;25.60;39.30;;;;;;5048052;28;20113;-48
2022/04/18 07:38:54;;;;;;;3.25;0.20;;;25.60;39.20;;;;;;5048300;28;20044;-54
2022/04/18 07:41:36;;;;;;;5.43;0.50;;;25.60;39.00;;;;;;5045909;28;20097;-51
2022/04/18 07:44:03;;;;;;;3.38;0.17;;;25.70;39.10;;;;;;5047841;28;20079;-51
2022/04/18 07:46:34;;;;;;;3.60;0.25;;;25.70;39.00;;;;;;5048079;28;20044;-51
2022/04/18 07:49:04;;;;;;;0.95;0.40;;;25.70;38.90;;;;;;5030358;28;20501;-52
2022/04/18 07:51:38;;;;;;;3.40;0.80;;;25.70;38.80;;;;;;5047911;28;20521;-52
2022/04/18 07:54:18;;;;;;;5.10;0.30;;;25.70;38.70;;;;;;5032264;28;20501;-50
2022/04/18 07:56:47;;;;;;;3.60;0.10;;;25.70;38.70;;;;;;5047679;28;20059;-52
2022/04/18 07:59:15;;;;;;;0.30;0.10;;;25.70;38.60;;;;;;5051209;28;20046;-52
2022/04/18 08:01:44;;;;;;;1.30;0.15;;;25.70;38.50;;;;;;5065547;28;20084;-51
2022/04/18 08:04:17;;;;;;;0.30;0.20;;;25.70;38.40;;;;;;5047692;28;20040;-48
2022/04/18 08:06:44;;;;;;;0.77;0.10;;;25.70;38.30;;;;;;5065646;28;20537;-49
2022/04/18 08:09:20;;;;;;;4.32;0.10;;;25.70;38.10;;;;;;5032594;28;20090;-53
2022/04/18 08:11:47;;;;;;;4.68;0.40;;;25.70;38.10;;;;;;5047939;28;20037;-51
2022/04/18 08:14:20;;;;;;;1.40;0.32;;;25.70;38.00;;;;;;5048699;28;20040;-52
2022/04/18 08:16:53;;;;;;;3.53;0.10;;;25.70;37.80;;;;;;5047612;28;20060;-51
2022/04/18 08:19:30;;;;;;;1.80;0.13;;;25.70;37.70;;;;;;5049467;28;20040;-51
2022/04/18 08:21:58;;;;;;;1.02;0.40;;;25.70;37.70;;;;;;5068256;28;20071;-53
2022/04/18 08:24:25;;;;;;;1.88;0.20;;;25.70;37.70;;;;;;5051646;28;20040;-53
2022/04/18 08:27:11;;;;;;;0.68;0.10;;;25.70;37.70;;;;;;5053318;28;20041;-53
2022/04/18 08:29:50;;;;;;;0.73;0.10;;;25.70;37.60;;;;;;5032179;28;20164;-51
2022/04/18 08:32:39;;;;;;;0.73;0.10;;;25.70;37.60;;;;;;5070599;28;20045;-52
2022/04/18 08:35:08;;;;;;;0.55;0.10;;;25.70;37.50;;;;;;5068882;28;20128;-50
2022/04/18 08:37:36;;;;;;;0.50;0.10;;;25.70;37.40;;;;;;5058826;28;20123;-52
2022/04/18 08:40:34;;;;;;;0.35;0.10;;;25.80;37.40;;;;;;5064878;28;20052;-54
2022/04/18 08:43:03;;;;;;;1.17;0.28;;;25.70;37.30;;;;;;5050401;28;20041;-54
2022/04/18 08:45:32;;;;;;;0.30;0.10;;;25.70;37.30;;;;;;5051208;28;20051;-52
2022/04/18 08:53:32;;;;;;;0.30;0.10;;;25.80;37.70;;;;;;5064408;28;20037;-53
2022/04/18 08:56:02;;;;;;;2.25;0.10;;;25.80;37.10;;;;;;5040464;28;20056;-54
2022/04/18 08:58:33;;;;;;;0.40;0.20;;;25.80;37.00;;;;;;5049957;28;20033;-52
2022/04/18 09:01:03;;;;;;;0.32;0.10;;;25.80;37.00;;;;;;5050631;28;20189;-53
2022/04/18 09:03:44;;;;;;;0.90;0.20;;;25.80;36.80;;;;;;5069080;28;20059;-51
2022/04/18 09:06:14;;;;;;;0.30;0.10;;;25.80;36.80;;;;;;5034165;28;20111;-50
2022/04/18 09:08:51;;;;;;;0.45;0.10;;;25.90;36.70;;;;;;5047723;28;20400;-52
2022/04/18 09:11:29;;;;;;;1.00;0.20;;;25.90;36.70;;;;;;5051796;28;20048;-54
2022/04/18 09:14:06;;;;;;;1.23;0.20;;;25.90;36.50;;;;;;5049970;28;20044;-52
2022/04/18 09:16:34;;;;;;;0.25;0.15;;;25.90;36.50;;;;;;5050557;28;20048;-54
2022/04/18 09:19:11;;;;;;;1.77;0.75;;;25.90;36.50;;;;;;5050492;28;20044;-51
2022/04/18 09:21:43;;;;;;;0.65;0.20;;;26.00;36.40;;;;;;5050285;28;20041;-52
2022/04/18 09:24:32;;;;;;;0.55;0.25;;;26.00;36.40;;;;;;5050576;28;20048;-53
2022/04/18 09:27:14;;;;;;;1.75;0.40;;;26.00;36.20;;;;;;5049898;28;20037;-50
2022/04/18 09:29:43;;;;;;;1.33;0.20;;;26.00;36.20;;;;;;5063771;28;20477;-54
2022/04/18 09:32:23;;;;;;;1.92;0.40;;;26.00;36.10;;;;;;5051931;28;20517;-52
2022/04/18 09:35:14;;;;;;;2.03;0.30;;;26.00;36.00;;;;;;5057326;28;20467;-50
2022/04/18 09:37:52;;;;;;;0.77;0.50;;;26.00;36.00;;;;;;5050106;28;20546;-48
2022/04/18 09:40:38;;;;;;;2.42;0.43;;;26.10;36.00;;;;;;5050274;28;20080;-49
2022/04/18 09:43:05;;;;;;;2.75;1.15;;;26.10;35.90;;;;;;5050149;28;20083;-51
2022/04/18 09:45:32;;;;;;;1.08;0.45;;;26.10;35.80;;;;;;5036987;28;20056;-54
2022/04/18 09:48:02;;;;;;;1.40;0.47;;;26.10;35.80;;;;;;5068201;28;20071;-52
2022/04/18 09:53:21;;;;;;;0.70;0.43;;;26.20;36.30;;;;;;5067873;28;20040;-50
2022/04/18 09:55:51;;;;;;;2.47;1.15;;;26.20;35.60;;;;;;5059234;28;20095;-51
2022/04/18 09:58:19;;;;;;;0.90;0.73;;;26.20;35.50;;;;;;5060072;28;20047;-51
2022/04/18 10:00:47;;;;;;;2.35;0.88;;;26.20;35.50;;;;;;5067342;28;20048;-54
2022/04/18 10:03:15;;;;;;;1.30;0.50;;;26.30;35.50;;;;;;5052223;28;20062;-52
2022/04/18 10:05:44;;;;;;;1.20;0.57;;;26.30;35.40;;;;;;5071201;28;20044;-54
2022/04/18 10:08:12;;;;;;;3.10;0.90;;;26.30;35.30;;;;;;5067004;28;20425;-54
2022/04/18 10:10:41;;;;;;;1.45;0.70;;;26.30;35.30;;;;;;5067544;28;20049;-54
2022/04/18 10:13:09;;;;;;;1.63;0.93;;;26.40;35.30;;;;;;5049189;28;20068;-51
2022/04/18 10:15:36;;;;;;;3.08;0.75;;;26.30;35.10;;;;;;5067173;28;20068;-53
2022/04/18 10:18:05;;;;;;;2.70;0.90;;;26.30;35.00;;;;;;5067836;28;20045;-54
2022/04/18 10:20:47;;;;;;;1.80;1.08;;;26.40;35.10;;;;;;5068585;28;20058;-51
2022/04/18 10:23:36;;;;;;;1.48;1.27;;;26.40;35.00;;;;;;5068636;28;20572;-50
2022/04/18 10:26:43;;;;;;;3.45;1.35;;;26.40;34.90;;;;;;5067214;28;20044;-52
2022/04/18 10:29:14;;;;;;;1.38;0.80;;;26.40;34.80;;;;;;5067883;28;20076;-54
2022/04/18 10:31:43;;;;;;;2.50;0.98;;;26.40;34.90;;;;;;5067293;28;20048;-51
2022/04/18 10:34:13;;;;;;;2.47;0.70;;;26.40;34.80;;;;;;5066129;28;20584;-53
2022/04/18 10:36:48;;;;;;;1.35;0.90;;;26.50;34.80;;;;;;5066997;28;20564;-51
2022/04/18 10:39:16;;;;;;;4.95;1.23;;;26.50;34.70;;;;;;5049868;28;20045;-53
2022/04/18 10:41:46;;;;;;;1.33;0.90;;;26.50;34.70;;;;;;5067396;28;20036;-53
2022/04/18 10:44:14;;;;;;;1.70;0.88;;;26.50;34.60;;;;;;5067602;28;20052;-53
2022/04/18 10:46:47;;;;;;;3.78;1.33;;;26.50;34.60;;;;;;5048654;28;20052;-53
2022/04/18 10:49:16;;;;;;;1.48;1.25;;;26.50;34.60;;;;;;5066591;28;20032;-49
2022/04/18 10:51:44;;;;;;;1.05;0.90;;;26.50;34.60;;;;;;5067072;28;20110;-53
2022/04/18 10:54:15;;;;;;;1.58;0.40;;;26.50;34.60;;;;;;5066789;28;20049;-52
2022/04/18 10:56:54;;;;;;;1.50;1.40;;;26.60;34.50;;;;;;5050270;28;20069;-53
2022/04/18 10:59:23;;;;;;;0.70;0.57;;;26.60;34.40;;;;;;5067512;28;20044;-49
2022/04/18 11:01:51;;;;;;;1.85;0.80;;;26.60;34.40;;;;;;5066397;28;20048;-48
2022/04/18 11:04:18;;;;;;;2.45;0.95;;;26.60;34.40;;;;;;5066039;28;20036;-50
2022/04/18 11:06:58;;;;;;;1.27;0.60;;;26.60;34.30;;;;;;5066595;28;20049;-52
2022/04/18 11:09:28;;;;;;;0.95;0.43;;;26.60;34.30;;;;;;5052497;28;20037;-56
2022/04/18 11:12:05;;;;;;;1.10;0.52;;;26.70;34.30;;;;;;5066819;28;20040;-51
2022/04/18 11:14:46;;;;;;;1.50;0.50;;;26.60;34.20;;;;;;5035901;28;20462;-48
2022/04/18 11:17:24;;;;;;;1.38;0.52;;;26.70;34.20;;;;;;5066955;28;20048;-49
2022/04/18 11:19:51;;;;;;;1.25;0.52;;;26.70;34.20;;;;;;5047990;28;20517;-49
2022/04/18 11:22:23;;;;;;;0.80;0.65;;;26.70;34.10;;;;;;5066216;28;20509;-48
2022/04/18 11:25:02;;;;;;;0.80;0.35;;;26.80;34.00;;;;;;5065960;28;20048;-50
2022/04/18 11:27:35;;;;;;;1.00;0.32;;;26.80;34.00;;;;;;5066237;28;20056;-52
2022/04/18 11:30:07;;;;;;;0.63;0.28;;;26.80;33.90;;;;;;5066365;28;20087;-51
2022/04/18 11:32:36;;;;;;;1.20;0.40;;;26.90;33.90;;;;;;5067735;28;20351;-50
2022/04/18 11:35:06;;;;;;;2.25;0.20;;;26.90;33.90;;;;;;5066060;28;20382;-49
2022/04/18 11:37:36;;;;;;;1.10;0.50;;;26.90;33.70;;;;;;5066355;28;20067;-52
2022/04/18 11:40:08;;;;;;;1.35;0.35;;;26.90;33.70;;;;;;5048665;28;20136;-50
2022/04/18 11:42:35;;;;;;;0.47;0.30;;;27.00;33.60;;;;;;5066241;28;20075;-53
2022/04/18 11:45:05;;;;;;;2.05;0.70;;;27.00;33.50;;;;;;5066252;28;20056;-53
2022/04/18 11:47:38;;;;;;;0.95;0.50;;;27.00;33.50;;;;;;5067617;28;20052;-52
2022/04/18 11:50:07;;;;;;;0.20;0.20;;;27.10;33.40;;;;;;5055145;28;20172;-51
2022/04/18 11:52:35;;;;;;;0.50;0.50;;;27.10;33.40;;;;;;5061618;28;20032;-51
2022/04/18 11:55:06;;;;;;;0.30;0.20;;;27.10;33.30;;;;;;5068112;28;20040;-49
2022/04/18 11:57:35;;;;;;;0.85;0.85;;;27.20;33.30;;;;;;5056898;28;20111;-49
2022/04/18 12:00:05;;;;;;;1.92;0.35;;;27.20;33.20;;;;;;5070191;28;20045;-54
2022/04/18 12:08:12;;;;;;;0.30;0.30;;;27.30;33.10;;;;;;5070954;28;20045;-49
2022/04/18 12:10:42;;;;;;;0.45;0.30;;;27.30;33.10;;;;;;5069573;28;20052;-54
2022/04/18 12:13:11;;;;;;;0.93;0.35;;;27.40;33.10;;;;;;5069400;28;20155;-52
2022/04/18 12:15:39;;;;;;;0.30;0.17;;;27.40;33.00;;;;;;5069787;28;20047;-52
2022/04/18 12:18:11;;;;;;;0.70;0.35;;;27.40;33.00;;;;;;5069481;28;20040;-52
2022/04/18 12:20:43;;;;;;;1.75;0.60;;;27.50;33.00;;;;;;5071725;28;20047;-54
2022/04/18 12:23:15;;;;;;;1.65;0.38;;;27.50;33.00;;;;;;5070355;28;20138;-49
2022/04/18 12:25:46;;;;;;;0.63;0.63;;;27.50;32.90;;;;;;5069734;28;20053;-51
2022/04/18 12:28:14;;;;;;;0.68;0.50;;;27.50;32.80;;;;;;5068867;28;20440;-52
2022/04/18 12:30:41;;;;;;;1.33;0.20;;;27.60;32.90;;;;;;5069023;28;20389;-50
2022/04/18 12:33:13;;;;;;;1.13;0.30;;;27.60;32.80;;;;;;5069391;28;20064;-51
2022/04/18 12:35:41;;;;;;;0.28;0.20;;;27.60;32.80;;;;;;5071234;28;20542;-49
2022/04/18 12:38:10;;;;;;;2.63;0.52;;;27.60;32.70;;;;;;5051127;28;20055;-48
2022/04/18 12:40:38;;;;;;;2.17;0.47;;;27.70;32.70;;;;;;5069367;28;20045;-51
2022/04/18 12:43:08;;;;;;;1.08;0.32;;;27.70;32.70;;;;;;5068837;28;20067;-51
2022/04/18 12:45:48;;;;;;;0.65;0.50;;;27.70;32.60;;;;;;5068692;28;20118;-51
2022/04/18 12:48:20;;;;;;;1.02;0.30;;;27.70;32.50;;;;;;5058276;28;20076;-51
2022/04/18 12:50:47;;;;;;;0.50;0.38;;;27.80;32.60;;;;;;5069984;28;20440;-48
2022/04/18 12:53:14;;;;;;;0.40;0.40;;;27.80;32.50;;;;;;5070593;28;20044;-55
2022/04/18 12:55:41;;;;;;;1.30;0.40;;;27.80;32.50;;;;;;5061657;28;20123;-55
2022/04/18 12:58:19;;;;;;;0.70;0.30;;;27.80;32.40;;;;;;5060211;28;20037;-54
2022/04/18 13:00:48;;;;;;;0.77;0.32;;;27.90;32.40;;;;;;5068872;28;20076;-53
2022/04/18 13:03:16;;;;;;;1.08;0.30;;;27.90;32.40;;;;;;5060115;28;20051;-52
2022/04/18 13:05:45;;;;;;;0.20;0.10;;;27.90;32.30;;;;;;5051800;28;20119;-55
2022/04/18 13:08:14;;;;;;;1.80;1.15;;;28.00;32.30;;;;;;5070132;28;20036;-52
2022/04/18 13:10:41;;;;;;;1.60;0.20;;;28.00;32.30;;;;;;5068708;28;20053;-53
2022/04/18 13:13:12;;;;;;;0.73;0.73;;;28.00;32.20;;;;;;5068243;28;20052;-54
2022/04/18 13:15:41;;;;;;;0.30;0.20;;;28.00;32.20;;;;;;5068369;28;20055;-52
2022/04/18 13:18:11;;;;;;;0.28;0.20;;;28.00;32.10;;;;;;5068577;28;20481;-53
2022/04/18 13:20:39;;;;;;;0.82;0.10;;;28.10;32.10;;;;;;5069830;28;20040;-51
2022/04/18 13:23:08;;;;;;;0.30;0.20;;;28.10;32.10;;;;;;5068527;28;20045;-53
2022/04/18 13:25:35;;;;;;;0.68;0.30;;;28.10;32.10;;;;;;5068307;28;20036;-52
2022/04/18 13:28:06;;;;;;;0.30;0.25;;;28.20;32.10;;;;;;5067627;28;20055;-55
2022/04/18 13:30:35;;;;;;;0.40;0.17;;;28.20;32.00;;;;;;5068406;28;20497;-49
2022/04/18 13:33:05;;;;;;;0.52;0.30;;;28.20;32.00;;;;;;5068157;28;20078;-51
2022/04/18 13:36:30;;;;;;;1.50;0.30;;;28.20;31.90;;;;;;5069987;28;20036;-55
2022/04/18 13:38:22;;;;;;;0.20;0.10;;;28.20;31.90;;;;;;5069719;28;20501;-52
2022/04/18 13:40:49;;;;;;;0.68;0.22;;;28.20;31.80;;;;;;5068258;28;20041;-55